Používaním stránok prevádzkovaných PROFIPILOT, s.r.o. súhlasíte s používaním cookies, ktoré nám pomáhajú zabezpečiť lepšie služby.OK

Briefing

MAPA | METAR | TAF | METEO SITUÁCIA
MAPA | METAR | TAF | METEO SITUÁCIA

Predpoveď na dnes

Slnečno. Najvyššia denná teplota 20 až 25, na Orave a pod Tatrami okolo 18 st. Teplota na horách vo výške 1500 m okolo 14 st. Slabý premenlivý, postupne miestami južný až juhozápadný vietor 2 až 7 m/s (5 až 25 km/h). Predpokladané množstvo zrážok: bez zrážok

SHMÚ, OMPaV, NH 15.9.2019 11:45 LSEČ

MAPA | METAR | TAF | METEO SITUÁCIA

TAF - Letisková predpoveď

15.09.2019 - 17:00 UTC

TAF AMD LZPP 152010Z 1520/1603 CNL=
 

15.09.2019 - 20:00 UTC

TAF LZSL 152000Z 1521/1606 VRB02KT CAVOK
     BECMG 1600/1602 4000 BR NSC
     TEMPO 1602/1606 1300 BCFG BR SCT001
     PROB40 1602/1606 0300 FG BKN001=
 TAF LZZI 152000Z 1521/1606 VRB02KT CAVOK
     BECMG 1523/1601 4500 BR NSC
     BECMG 1602/1604 0800 FG BKN002
     PROB40 TEMPO 1602/1606 0100 FG BKN001=
 

15.09.2019 - 17:00 UTC

TAF LZIB 151700Z 1518/1618 17005KT CAVOK
     BECMG 1519/1521 VRB02KT
     TEMPO 1600/1607 2500 BR FEW003 SCT014
     PROB40 1602/1606 1300 BCFG BKN002
     BECMG 1609/1611 30005KT 9999 FEW040=
 TAF LZKZ 151700Z 1518/1618 22010KT CAVOK
     BECMG 1522/1600 VRB02KT
     BECMG 1607/1609 15005KT
     BECMG 1616/1618 9999 FEW045=
 TAF LZTT 151700Z 1518/1618 25008KT CAVOK
     TEMPO 1523/1610 VRB02KT
     BECMG 1612/1614 9999 FEW070=
 

15.09.2019 - 17:00 UTC

TAF LZSL 151700Z 1518/1603 30005KT CAVOK
     BECMG 1519/1521 VRB02KT=
 TAF LZPP 151700Z 1518/1603 12005KT CAVOK
     BECMG 1519/1521 VRB02KT=
 TAF LZZI 151700Z 1518/1603 23005KT CAVOK
     BECMG 1518/1520 VRB02KT
     PROB40 1523/1603 1500 BCFG NSC=
 

15.09.2019 - 14:00 UTC

TAF LZSL 151400Z 1515/1600 20005KT CAVOK
     BECMG 1519/1521 VRB02KT=
 TAF LZPP 151400Z 1515/1600 18005KT CAVOK
     BECMG 1519/1521 VRB02KT=
 TAF LZZI 151400Z 1515/1600 23010KT CAVOK
     BECMG 1518/1520 VRB02KT
     PROB40 1522/1600 1500 BCFG NSC=
 

15.09.2019 - 11:00 UTC

TAF LZIB 151100Z 1512/1612 15005KT CAVOK
     BECMG 1519/1521 VRB02KT
     BECMG 1522/1600 2500 BR FEW003 SCT014
     TEMPO 1600/1607 0300 FG BKN002
     BECMG 1607/1609 30005KT 9999 FEW040=
 TAF LZKZ 151100Z 1512/1612 22010KT CAVOK
     TEMPO 1522/1607 VRB02KT=
 TAF LZTT 151100Z 1512/1612 26004KT CAVOK
     TEMPO 1522/1609 VRB02KT=
 

15.09.2019 - 11:00 UTC

TAF LZSL 151100Z 1512/1521 20005KT CAVOK
     BECMG 1519/1521 VRB02KT=
 TAF LZPP 151100Z 1512/1521 18005KT CAVOK
     BECMG 1519/1521 VRB02KT=
 TAF LZZI 151100Z 1512/1521 23010KT CAVOK
     BECMG 1518/1520 VRB02KT=
 

15.09.2019 - 08:00 UTC

TAF LZSL 150800Z 1509/1518 VRB02KT CAVOK
     BECMG 1509/1511 20005KT=
 TAF LZPP 150800Z 1509/1518 02004KT CAVOK
     BECMG 1509/1511 18006KT=
 TAF LZZI 150800Z 1509/1518 VRB02KT CAVOK
     BECMG 1509/1511 23007KT=
 

15.09.2019 - 05:00 UTC

TAF LZIB 150500Z 1506/1606 05004KT CAVOK
     BECMG 1509/1511 16006KT=
 TAF LZKZ 150500Z 1506/1606 VRB02KT CAVOK
     TEMPO 1510/1516 21010KT=
 TAF LZTT 150500Z 1506/1606 26004KT CAVOK
     TEMPO 1506/1507 4000 MIFG SCT005
     PROB30 TEMPO 1506/1507 0500 FG BKN002
     TEMPO 1510/1516 24010KT 9999 FEW050=
 

15.09.2019 - 05:00 UTC

TAF LZSL 150500Z 1506/1515 VRB02KT CAVOK
     TEMPO 1506/1507 4000 MIFG SCT005
     PROB30 TEMPO 1506/1507 0500 FG BKN002=
 TAF LZPP 150500Z 1506/1515 02004KT CAVOK
     BECMG 1509/1511 18006KT=
 TAF LZZI 150500Z 1506/1515 10004KT CAVOK
     TEMPO 1506/1507 4000 MIFG SCT005
     PROB30 TEMPO 1506/1507 0500 FG BKN002=
 

15.09.2019 - 02:00 UTC

TAF LZSL 150200Z 1503/1512 VRB02KT CAVOK
     TEMPO 1503/1507 4000 MIFG SCT005
     PROB40 TEMPO 1503/1507 0500 FG BKN002=
 TAF LZZI 150200Z 1503/1512 13003KT CAVOK
     TEMPO 1503/1507 4000 BR SCT005
     PROB40 1503/1507 0500 FG BKN002=
 
MAPA | METAR | TAF | METEO SITUÁCIA

METAR - Letisková meteo správa

Letisková meteorologická správa METAR

Meteorologické informácie z ďalších profesionálnych meteorologických staníc SHMÚ zobrazené v tvare zodpovedajúcom pravidlám kódovania správ METAR sú uvedené v položke „METSYN Informácie o správe METAR

15.09.2019 - 20:00 UTC

METAR LZIB 152000Z 02004KT CAVOK 16/13 Q1021=
 METAR LZKZ 152000Z 17006KT CAVOK 13/07 Q1021=
 METAR LZPP 152000Z 35004KT CAVOK 13/11 Q1021=
 METAR LZSL 152000Z 00000KT CAVOK 12/10 Q1022=
 METAR LZTT 152000Z 25013KT CAVOK 12/07 Q1021=
 METAR LZZI 152000Z VRB01KT CAVOK 11/10 Q1022=
 

15.09.2019 - 19:30 UTC

METAR LZIB 151930Z 03005KT CAVOK 15/13 Q1021=
 METAR LZKZ 151930Z 15003KT 130V200 CAVOK 12/07 Q1021=
 METAR LZPP 151930Z 36006KT CAVOK 14/11 Q1021=
 METAR LZSL 151930Z 00000KT CAVOK 12/10 Q1022=
 METAR LZTT 151930Z 25015KT CAVOK 13/07 Q1021=
 METAR LZZI 151930Z VRB01KT CAVOK 12/10 Q1022=
 

15.09.2019 - 20:00 UTC

METAR LZMC 152000Z 23002KT CAVOK 15/11 Q1021=
 METAR LZPW 152000Z 23006KT CAVOK 13/06 Q1020=
 
načítavam...